This is the latest recevied weather packets stored in our database for station/object W5LND-10. If no packets are shown the sender has not sent any weather packets the latest 1 day(s).
| Time | Temp. | Humidity | Pressure | Rain* | Wind** | Luminosity | Snow |
|---|---|---|---|---|---|---|---|
| 1778058668 | 13.33° C | 69% | 1005.9 hPa | 0 mm | - | 0 W/m² | - |
| 1778058368 | 13.33° C | 69% | 1006.3 hPa | 0 mm | - | 0 W/m² | - |
| 1778058068 | 13.33° C | 69% | 1006.2 hPa | 0 mm | - | 0 W/m² | - |
| 1778057768 | 13.33° C | 68% | 1005.9 hPa | 0 mm | - | 0 W/m² | - |
| 1778057468 | 13.33° C | 68% | 1005.9 hPa | 0 mm | - | 0 W/m² | - |
| 1778057168 | 13.89° C | 68% | 1005.8 hPa | 0 mm | - | 0 W/m² | - |
| 1778056868 | 13.89° C | 68% | 1005.8 hPa | 0 mm | - | 0 W/m² | - |
| 1778056568 | 13.89° C | 67% | 1005.9 hPa | 0 mm | - | 0 W/m² | - |
| 1778056268 | 13.89° C | 67% | 1005.8 hPa | 0 mm | - | 0 W/m² | - |
| 1778055968 | 14.44° C | 67% | 1006 hPa | 0 mm | - | 0 W/m² | - |
| 1778055668 | 14.44° C | 66% | 1005.9 hPa | 0 mm | - | 0 W/m² | - |
| 1778055368 | 14.44° C | 66% | 1005.9 hPa | 0 mm | - | 0 W/m² | - |
| 1778054768 | 15° C | 66% | 1005.6 hPa | 0 mm | - | 0 W/m² | - |
| 1778054168 | 15.56° C | 64% | 1005.4 hPa | 0 mm | - | 0 W/m² | - |
| 1778053568 | 15.56° C | 63% | 1005.5 hPa | 0 mm | - | 0 W/m² | - |
| 1778052968 | 16.11° C | 62% | 1005.3 hPa | 0 mm | - | 0 W/m² | - |
| 1778052668 | 16.11° C | 61% | 1005.4 hPa | 0 mm | - | 0 W/m² | - |
| 1778050568 | 17.78° C | 56% | 1005.3 hPa | 0 mm | - | 0 W/m² | - |
| 1778048768 | 18.89° C | 52% | 1005 hPa | 0 mm | - | 0 W/m² | - |
| 1778047269 | 20° C | 49% | 1004.9 hPa | 0 mm | - | 0 W/m² | - |
| 1778046968 | 20.56° C | 49% | 1004.9 hPa | 0 mm | - | 0 W/m² | - |
| 1778046068 | 21.11° C | 48% | 1004.7 hPa | 0 mm | - | 0 W/m² | - |
| 1778043968 | 21.67° C | 43% | 1004.6 hPa | 0 mm | - | 0 W/m² | - |
| 1778043368 | 22.22° C | 41% | 1004.6 hPa | 0 mm | - | 0 W/m² | - |
| 1778043068 | 22.22° C | 40% | 1004.6 hPa | 0 mm | - | 0 W/m² | - |
* Rain latest hour (hover to see other rain measurements)
** Current wind speed in m/s (hover to see current wind gust speed)